Time;durP1;ratioP1;P1;durP2;ratioP2;P2;SDS_P1;SDS_P2;PMS_P1;PMS_P2;Temp;Humidity;BMP_temperature;BMP_pressure;BME280_temperature;BME280_humidity;BME280_pressure;Samples;Min_cycle;Max_cycle;Signal;HPM_P1;HPM_P2
2023/04/08 00:01:47;;;;;;;5.47;2.60;;;4.20;48.70;;;;;;5118084;27;20474;-65
2023/04/08 00:04:13;;;;;;;4.47;2.33;;;4.20;49.40;;;;;;5136478;27;20110;-65
2023/04/08 00:06:39;;;;;;;3.47;2.30;;;4.10;47.80;;;;;;5136477;27;20042;-65
2023/04/08 00:09:04;;;;;;;6.28;2.70;;;4.10;51.70;;;;;;5136447;27;20042;-65
2023/04/08 00:11:30;;;;;;;4.18;2.38;;;4.10;57.30;;;;;;5136350;27;20096;-65
2023/04/08 00:13:56;;;;;;;3.55;2.08;;;4.00;52.70;;;;;;5136324;27;20108;-66
2023/04/08 00:16:21;;;;;;;6.63;2.60;;;4.00;56.20;;;;;;5117884;27;20050;-66
2023/04/08 00:18:48;;;;;;;7.53;2.60;;;3.90;63.30;;;;;;5136090;27;20046;-66
2023/04/08 00:21:16;;;;;;;4.78;2.75;;;3.90;57.90;;;;;;5135815;27;20048;-66
2023/04/08 00:23:42;;;;;;;4.05;2.25;;;3.80;64.20;;;;;;5100549;27;20043;-66
2023/04/08 00:26:08;;;;;;;5.35;2.88;;;3.80;66.20;;;;;;5136075;27;20058;-66
2023/04/08 00:28:34;;;;;;;4.65;2.83;;;3.80;70.10;;;;;;5117618;27;20122;-66
2023/04/08 00:30:59;;;;;;;3.78;2.40;;;3.70;72.10;;;;;;5136085;27;20031;-66
2023/04/08 00:33:25;;;;;;;6.03;3.08;;;3.70;75.10;;;;;;5136006;27;20043;-66
2023/04/08 00:35:51;;;;;;;3.95;2.60;;;3.70;78.00;;;;;;5135927;27;20398;-66
2023/04/08 00:38:16;;;;;;;5.03;2.88;;;3.70;80.10;;;;;;5135865;27;20046;-66
2023/04/08 00:40:42;;;;;;;5.00;2.72;;;3.70;78.80;;;;;;5117368;27;20047;-66
2023/04/08 00:43:08;;;;;;;4.63;2.40;;;3.70;83.90;;;;;;5135759;27;20067;-67
2023/04/08 00:45:33;;;;;;;4.53;2.80;;;3.70;85.40;;;;;;5135689;27;20031;-66
2023/04/08 00:48:00;;;;;;;7.45;3.03;;;3.70;87.30;;;;;;5135663;27;20481;-65
2023/04/08 00:50:25;;;;;;;4.93;3.20;;;3.60;87.30;;;;;;5135543;27;20035;-65
2023/04/08 00:52:51;;;;;;;4.75;2.80;;;3.70;85.70;;;;;;5135651;27;20545;-65
2023/04/08 00:55:17;;;;;;;5.25;3.10;;;3.60;87.40;;;;;;5135208;27;20035;-66
2023/04/08 00:57:43;;;;;;;6.00;3.25;;;3.70;86.90;;;;;;5116815;27;20046;-66
2023/04/08 01:00:09;;;;;;;6.00;2.97;;;3.60;87.20;;;;;;5135085;27;20141;-66
2023/04/08 01:02:44;;;;;;;8.00;3.90;;;3.70;92.00;;;;;;5134963;27;20043;-66
2023/04/08 01:05:38;;;;;;;5.10;2.88;;;3.60;91.40;;;;;;5135356;27;20039;-66
2023/04/08 01:08:07;;;;;;;5.50;2.95;;;3.60;90.90;;;;;;5134281;27;20035;-66
2023/04/08 01:10:36;;;;;;;6.18;3.33;;;3.60;91.40;;;;;;5135227;27;20039;-65
2023/04/08 01:13:08;;;;;;;6.82;3.58;;;3.60;91.80;;;;;;5135165;27;20068;-66
2023/04/08 01:15:37;;;;;;;6.97;3.58;;;3.60;92.30;;;;;;5135054;27;20518;-65
2023/04/08 01:18:06;;;;;;;9.55;3.05;;;3.50;92.80;;;;;;5135100;27;20441;-66
2023/04/08 01:20:33;;;;;;;6.47;3.75;;;3.50;92.10;;;;;;5134551;27;20463;-66
2023/04/08 01:23:15;;;;;;;5.32;2.95;;;3.50;93.00;;;;;;5134966;27;20528;-66
2023/04/08 01:25:48;;;;;;;9.27;3.88;;;3.50;94.90;;;;;;5134951;27;20388;-66
2023/04/08 01:28:16;;;;;;;7.85;3.63;;;3.50;96.20;;;;;;5116231;27;20043;-66
2023/04/08 01:30:43;;;;;;;5.78;3.40;;;3.50;96.30;;;;;;5134872;27;20042;-66
2023/04/08 01:33:15;;;;;;;5.78;3.40;;;3.50;96.00;;;;;;5134830;27;20489;-66
2023/04/08 01:35:41;;;;;;;7.25;3.60;;;3.50;96.60;;;;;;5134704;27;20513;-68
2023/04/08 01:38:10;;;;;;;4.38;2.72;;;3.40;96.90;;;;;;5116315;27;20558;-66
2023/04/08 01:40:38;;;;;;;6.50;3.70;;;3.40;97.80;;;;;;5116355;27;20031;-66
2023/04/08 01:43:07;;;;;;;8.38;3.85;;;3.40;97.30;;;;;;5134558;27;20043;-67
2023/04/08 01:45:33;;;;;;;6.85;3.60;;;3.40;97.90;;;;;;5134598;27;20067;-65
2023/04/08 01:48:00;;;;;;;5.70;3.60;;;3.40;97.70;;;;;;5115906;27;20117;-65
2023/04/08 01:50:27;;;;;;;6.45;3.70;;;3.40;97.80;;;;;;5134273;27;20035;-66
2023/04/08 01:52:54;;;;;;;10.25;3.95;;;3.40;98.10;;;;;;5116037;27;20122;-66
2023/04/08 01:55:21;;;;;;;6.28;3.65;;;3.30;98.00;;;;;;5134389;27;20045;-68
2023/04/08 01:57:50;;;;;;;5.32;3.72;;;3.30;97.80;;;;;;5134422;27;20405;-66
2023/04/08 02:00:21;;;;;;;7.10;3.40;;;3.30;98.40;;;;;;5134368;27;20084;-66
2023/04/08 02:02:48;;;;;;;6.50;3.65;;;3.20;98.30;;;;;;5134572;27;20035;-62
2023/04/08 02:05:14;;;;;;;6.22;3.70;;;3.20;98.80;;;;;;5101492;22;20136;-60
2023/04/08 02:07:39;;;;;;;8.65;3.78;;;3.20;99.50;;;;;;5053104;28;20037;-60
2023/04/08 02:10:05;;;;;;;6.43;3.90;;;3.20;99.10;;;;;;5053138;28;20040;-64
2023/04/08 02:12:33;;;;;;;10.13;3.83;;;3.10;99.60;;;;;;5053125;28;20480;-60
2023/04/08 02:14:59;;;;;;;8.48;3.97;;;3.10;99.80;;;;;;5035001;28;20072;-60
2023/04/08 02:17:40;;;;;;;8.73;4.10;;;3.10;99.50;;;;;;5052944;28;20384;-61
2023/04/08 02:20:15;;;;;;;8.90;3.38;;;3.10;99.90;;;;;;5052371;28;20045;-61
2023/04/08 02:22:53;;;;;;;9.30;3.35;;;3.10;99.90;;;;;;5052801;28;20120;-61
2023/04/08 02:25:23;;;;;;;8.32;3.92;;;3.00;99.90;;;;;;5052933;28;20044;-61
2023/04/08 02:27:51;;;;;;;5.03;3.10;;;3.00;99.90;;;;;;5034790;28;20082;-60
2023/04/08 02:30:18;;;;;;;8.63;3.88;;;3.00;99.90;;;;;;5052857;28;20044;-60
2023/04/08 02:32:46;;;;;;;7.22;3.85;;;3.00;99.90;;;;;;5034739;28;20163;-61
2023/04/08 02:35:13;;;;;;;9.50;4.38;;;3.00;99.90;;;;;;5034645;28;20041;-60
2023/04/08 02:37:39;;;;;;;7.15;3.75;;;3.00;99.90;;;;;;5052820;28;20040;-60
2023/04/08 02:40:22;;;;;;;9.85;4.40;;;3.00;99.90;;;;;;5052764;28;20063;-60
2023/04/08 02:42:47;;;;;;;8.18;4.38;;;3.00;99.90;;;;;;5052703;28;20131;-60
2023/04/08 02:45:13;;;;;;;8.65;3.63;;;3.00;99.90;;;;;;5052686;28;20479;-61
2023/04/08 02:47:38;;;;;;;10.10;4.63;;;3.00;99.90;;;;;;5052466;28;20051;-60
2023/04/08 02:50:04;;;;;;;6.65;3.85;;;3.00;99.90;;;;;;5034902;28;20043;-61
2023/04/08 02:52:30;;;;;;;9.52;4.07;;;2.90;99.90;;;;;;5052681;28;20095;-61
2023/04/08 02:54:55;;;;;;;7.47;4.25;;;3.00;99.90;;;;;;5034551;28;20037;-61
2023/04/08 02:57:21;;;;;;;7.43;4.20;;;2.90;99.90;;;;;;5052648;28;20041;-62
2023/04/08 02:59:47;;;;;;;7.35;4.80;;;2.90;99.90;;;;;;5052250;28;20446;-61
2023/04/08 03:02:12;;;;;;;7.40;4.20;;;2.90;99.90;;;;;;5034548;28;20033;-61
2023/04/08 03:04:38;;;;;;;6.78;4.10;;;2.90;99.90;;;;;;5052334;28;20049;-61
2023/04/08 03:07:03;;;;;;;10.48;4.40;;;2.90;99.90;;;;;;5052514;28;20037;-61
2023/04/08 03:09:29;;;;;;;11.30;4.88;;;2.90;99.90;;;;;;5052269;28;20449;-61
2023/04/08 03:11:54;;;;;;;10.48;5.00;;;2.90;99.90;;;;;;5052177;28;20076;-61
2023/04/08 03:14:21;;;;;;;8.35;3.72;;;2.90;99.90;;;;;;5052406;28;20040;-61
2023/04/08 03:16:46;;;;;;;10.32;4.88;;;2.90;99.90;;;;;;5052406;28;20111;-61
2023/04/08 03:19:12;;;;;;;10.52;5.30;;;2.90;99.90;;;;;;5052112;28;20516;-61
2023/04/08 03:21:37;;;;;;;8.55;4.15;;;2.90;99.90;;;;;;5052271;28;20037;-61
2023/04/08 03:24:03;;;;;;;11.57;4.63;;;2.90;99.90;;;;;;5052332;28;20100;-61
2023/04/08 03:26:29;;;;;;;7.70;4.38;;;2.80;99.90;;;;;;5052085;28;20088;-61
2023/04/08 03:28:55;;;;;;;7.68;4.68;;;2.80;99.90;;;;;;5034304;28;20033;-61
2023/04/08 03:31:20;;;;;;;7.57;4.55;;;2.80;99.90;;;;;;5053057;28;20037;-61
2023/04/08 03:33:46;;;;;;;8.00;4.57;;;2.80;99.90;;;;;;5055649;28;20322;-61
2023/04/08 03:36:12;;;;;;;10.10;4.50;;;2.80;99.90;;;;;;5055567;28;20392;-61
2023/04/08 03:38:37;;;;;;;8.00;4.85;;;2.80;99.90;;;;;;5055874;28;20116;-61
2023/04/08 03:41:03;;;;;;;8.98;4.00;;;2.80;99.90;;;;;;5055762;28;20037;-61
2023/04/08 03:43:29;;;;;;;8.85;4.82;;;2.80;99.90;;;;;;5055343;28;20463;-61
2023/04/08 03:45:55;;;;;;;8.88;4.28;;;2.80;99.90;;;;;;5055658;28;20128;-61
2023/04/08 03:48:21;;;;;;;10.27;4.85;;;2.80;99.90;;;;;;5055639;28;20052;-61
2023/04/08 03:50:47;;;;;;;11.25;5.00;;;2.80;99.90;;;;;;5055599;28;20037;-61
2023/04/08 03:53:12;;;;;;;8.85;4.55;;;2.90;99.90;;;;;;5055247;28;20064;-61
2023/04/08 03:55:38;;;;;;;7.88;5.03;;;2.80;99.90;;;;;;5055464;28;20111;-61
2023/04/08 03:58:04;;;;;;;10.43;4.95;;;2.90;99.90;;;;;;5055531;28;20040;-61
2023/04/08 04:00:30;;;;;;;12.60;4.93;;;2.80;99.90;;;;;;5055389;28;20045;-61
2023/04/08 04:02:56;;;;;;;10.68;5.05;;;2.80;99.90;;;;;;5037195;28;20510;-61
2023/04/08 04:05:21;;;;;;;9.30;4.15;;;2.80;99.90;;;;;;5055061;28;20045;-61
2023/04/08 04:07:47;;;;;;;7.20;4.80;;;2.80;99.90;;;;;;5055313;28;20399;-61
2023/04/08 04:10:13;;;;;;;8.23;4.22;;;2.80;99.90;;;;;;5055278;28;20045;-61
2023/04/08 04:12:38;;;;;;;8.02;4.63;;;2.80;99.90;;;;;;5054917;28;20067;-61
2023/04/08 04:15:04;;;;;;;13.13;5.35;;;2.80;99.90;;;;;;5054839;28;20045;-62
2023/04/08 04:17:30;;;;;;;14.65;5.75;;;2.90;99.90;;;;;;5055138;28;20072;-64
2023/04/08 04:19:56;;;;;;;10.15;4.75;;;2.90;99.90;;;;;;5054755;28;20447;-61
2023/04/08 04:22:21;;;;;;;6.70;4.18;;;2.90;99.90;;;;;;5036935;28;20090;-61
2023/04/08 04:24:48;;;;;;;9.55;5.28;;;2.90;99.90;;;;;;5055018;28;20037;-61
2023/04/08 04:27:16;;;;;;;8.32;4.63;;;2.90;99.90;;;;;;5054981;28;20025;-60
2023/04/08 04:29:42;;;;;;;9.93;5.07;;;2.90;99.90;;;;;;5054865;28;20076;-61
2023/04/08 04:32:07;;;;;;;8.70;4.88;;;2.90;99.90;;;;;;5054765;28;20448;-61
2023/04/08 04:34:33;;;;;;;9.90;4.68;;;2.90;99.90;;;;;;5054822;28;20424;-61
2023/04/08 04:36:59;;;;;;;11.50;5.18;;;2.90;99.90;;;;;;5054734;28;20109;-61
2023/04/08 04:39:25;;;;;;;12.90;5.45;;;2.90;99.90;;;;;;5054712;28;20052;-61
2023/04/08 04:41:50;;;;;;;8.30;4.95;;;2.90;99.90;;;;;;5054358;28;20465;-61
2023/04/08 04:44:16;;;;;;;10.13;5.50;;;2.90;99.90;;;;;;5054500;28;20040;-61
2023/04/08 04:46:42;;;;;;;12.27;6.22;;;3.00;99.90;;;;;;5054467;28;20056;-61
2023/04/08 04:49:07;;;;;;;9.75;5.60;;;3.00;99.90;;;;;;5036389;28;20064;-61
2023/04/08 04:51:33;;;;;;;11.05;4.90;;;3.00;99.90;;;;;;5054525;28;20480;-61
2023/04/08 04:53:59;;;;;;;12.65;5.95;;;3.00;99.90;;;;;;5054428;28;20041;-61
2023/04/08 04:56:26;;;;;;;12.23;5.28;;;3.10;99.90;;;;;;5054354;28;20039;-61
2023/04/08 04:58:51;;;;;;;9.80;5.43;;;3.10;99.90;;;;;;5054420;28;20033;-64
2023/04/08 05:01:17;;;;;;;9.45;5.20;;;3.10;99.90;;;;;;5036037;28;20062;-61
2023/04/08 05:03:42;;;;;;;12.35;4.95;;;3.10;99.90;;;;;;5053934;28;20436;-64
2023/04/08 05:06:08;;;;;;;10.32;4.90;;;3.10;99.90;;;;;;5053798;28;20088;-61
2023/04/08 05:08:34;;;;;;;9.93;5.10;;;3.20;99.90;;;;;;5054124;28;20072;-61
2023/04/08 05:11:01;;;;;;;10.13;5.10;;;3.20;99.90;;;;;;5054060;28;20112;-61
2023/04/08 05:13:30;;;;;;;11.48;6.03;;;3.30;99.90;;;;;;5054071;28;20414;-63
2023/04/08 05:15:56;;;;;;;10.05;5.47;;;3.30;99.90;;;;;;5054005;28;20044;-61
2023/04/08 05:18:25;;;;;;;10.95;5.45;;;3.30;99.90;;;;;;5054189;28;20099;-64
2023/04/08 05:20:50;;;;;;;10.18;5.50;;;3.50;99.90;;;;;;5035960;28;20128;-64
2023/04/08 05:23:16;;;;;;;17.88;6.32;;;3.50;99.90;;;;;;5035756;28;20116;-64
2023/04/08 05:25:42;;;;;;;9.77;4.78;;;3.60;99.90;;;;;;5053826;28;20140;-64
2023/04/08 05:28:07;;;;;;;14.20;5.72;;;3.70;99.90;;;;;;5053811;28;20094;-64
2023/04/08 05:30:33;;;;;;;10.70;5.20;;;3.80;99.90;;;;;;5035563;28;20119;-64
2023/04/08 05:32:59;;;;;;;13.50;5.82;;;3.90;99.90;;;;;;5053412;28;20048;-64
2023/04/08 05:35:24;;;;;;;11.10;5.78;;;4.00;99.90;;;;;;5053601;28;20048;-64
2023/04/08 05:37:50;;;;;;;10.13;5.13;;;4.10;99.90;;;;;;5053644;28;20044;-65
2023/04/08 05:40:16;;;;;;;13.70;5.50;;;4.20;99.90;;;;;;5053228;28;20041;-65
2023/04/08 05:42:41;;;;;;;10.25;5.55;;;4.30;99.90;;;;;;5053498;28;20037;-64
2023/04/08 05:45:07;;;;;;;13.07;5.88;;;4.40;99.90;;;;;;5053498;28;20033;-63
2023/04/08 05:47:33;;;;;;;12.73;6.30;;;4.50;99.90;;;;;;5018885;28;20055;-64
2023/04/08 05:49:58;;;;;;;11.13;5.35;;;4.60;99.90;;;;;;5053420;28;20120;-67
2023/04/08 05:52:24;;;;;;;11.50;5.93;;;4.70;99.90;;;;;;5053313;28;20044;-67
2023/04/08 05:54:50;;;;;;;11.38;5.18;;;4.80;99.90;;;;;;5052526;28;20475;-65
2023/04/08 05:57:15;;;;;;;15.20;6.05;;;4.90;99.90;;;;;;5052998;28;20048;-65
2023/04/08 05:59:41;;;;;;;12.90;5.22;;;5.00;99.90;;;;;;5053213;28;20091;-65
2023/04/08 06:02:07;;;;;;;15.68;6.30;;;5.10;99.90;;;;;;5053100;28;20124;-65
2023/04/08 06:04:32;;;;;;;13.25;6.35;;;5.10;99.90;;;;;;5052782;28;20060;-65
2023/04/08 06:06:59;;;;;;;11.68;5.93;;;5.20;99.90;;;;;;5035175;28;20037;-64
2023/04/08 06:09:25;;;;;;;12.02;5.90;;;5.20;99.90;;;;;;5052812;28;20064;-65
2023/04/08 06:11:51;;;;;;;16.50;5.40;;;5.20;99.90;;;;;;5053045;28;20036;-64
2023/04/08 06:14:17;;;;;;;14.35;5.50;;;5.30;99.90;;;;;;5053045;28;20407;-66
2023/04/08 06:16:42;;;;;;;11.85;6.15;;;5.30;99.90;;;;;;5053022;28;20368;-65
2023/04/08 06:19:08;;;;;;;11.65;6.47;;;5.30;99.90;;;;;;5052989;28;20037;-65
2023/04/08 06:21:33;;;;;;;13.07;6.07;;;5.40;99.90;;;;;;5052898;28;20037;-64
2023/04/08 06:23:59;;;;;;;9.23;5.45;;;5.50;99.90;;;;;;5052946;28;20037;-64
2023/04/08 06:26:25;;;;;;;13.73;6.80;;;5.50;99.90;;;;;;5052579;28;20403;-64
2023/04/08 06:28:51;;;;;;;13.85;6.22;;;5.50;99.90;;;;;;5052937;28;20083;-64
2023/04/08 06:31:16;;;;;;;12.73;6.20;;;5.60;99.90;;;;;;5052894;28;20040;-64
2023/04/08 06:33:42;;;;;;;14.90;6.85;;;5.70;99.90;;;;;;5052837;28;20067;-65
2023/04/08 06:36:08;;;;;;;14.27;5.75;;;5.70;99.90;;;;;;5052783;28;20556;-65
2023/04/08 06:38:34;;;;;;;10.88;5.28;;;5.80;99.90;;;;;;5052752;28;20072;-66
2023/04/08 06:41:03;;;;;;;13.75;6.20;;;5.90;99.90;;;;;;5034638;28;20041;-65
2023/04/08 06:43:29;;;;;;;13.27;6.20;;;5.90;99.90;;;;;;5034482;28;20041;-64
2023/04/08 06:45:55;;;;;;;10.73;5.97;;;5.90;99.90;;;;;;5052644;28;20037;-65
2023/04/08 06:48:22;;;;;;;11.30;6.32;;;6.00;99.90;;;;;;5052578;28;20036;-65
2023/04/08 06:50:48;;;;;;;14.35;5.97;;;6.20;99.90;;;;;;5052664;28;20065;-65
2023/04/08 06:53:13;;;;;;;15.18;6.70;;;6.30;99.90;;;;;;5052193;28;20079;-66
2023/04/08 06:55:39;;;;;;;11.43;5.63;;;6.60;99.90;;;;;;5052471;28;20041;-64
2023/04/08 06:58:05;;;;;;;14.68;6.57;;;6.70;99.90;;;;;;5052193;28;20079;-65
2023/04/08 07:00:31;;;;;;;14.75;6.55;;;6.70;96.30;;;;;;5052164;28;20037;-65
2023/04/08 07:02:56;;;;;;;14.43;5.78;;;6.70;91.20;;;;;;5052350;28;20048;-65
2023/04/08 07:05:22;;;;;;;10.60;5.72;;;6.70;88.50;;;;;;5052140;28;20389;-65
2023/04/08 07:07:47;;;;;;;11.50;6.15;;;6.80;90.00;;;;;;5055641;28;20047;-65
2023/04/08 07:10:13;;;;;;;9.88;5.30;;;6.80;90.60;;;;;;5056192;28;20076;-65
2023/04/08 07:12:39;;;;;;;10.73;6.18;;;6.90;89.10;;;;;;5056118;28;20120;-65
2023/04/08 07:15:05;;;;;;;11.40;5.97;;;7.10;78.00;;;;;;5056089;28;20094;-65
2023/04/08 07:17:31;;;;;;;10.90;5.68;;;7.10;67.00;;;;;;5056042;28;20048;-65
2023/04/08 07:19:56;;;;;;;10.45;5.95;;;7.10;67.60;;;;;;5056562;28;20041;-67
2023/04/08 07:22:22;;;;;;;11.57;5.40;;;7.20;60.50;;;;;;5038246;28;20053;-72
2023/04/08 07:24:48;;;;;;;10.18;5.78;;;7.20;52.30;;;;;;5055821;28;20123;-67
2023/04/08 07:27:15;;;;;;;9.85;5.88;;;7.20;50.10;;;;;;5055696;28;20041;-66
2023/04/08 07:29:42;;;;;;;12.45;5.28;;;7.30;50.30;;;;;;5055699;28;20112;-67
2023/04/08 07:32:08;;;;;;;13.75;5.97;;;7.30;50.40;;;;;;5037863;28;20056;-66
2023/04/08 07:34:35;;;;;;;10.32;5.13;;;7.20;47.20;;;;;;5055950;28;20044;-67
2023/04/08 07:37:01;;;;;;;7.57;4.88;;;7.20;46.50;;;;;;5037758;28;20491;-66
2023/04/08 07:39:27;;;;;;;10.55;5.57;;;7.20;42.60;;;;;;5055858;28;20128;-66
2023/04/08 07:41:52;;;;;;;12.80;5.50;;;7.30;45.70;;;;;;5055492;28;20053;-66
2023/04/08 07:44:18;;;;;;;9.40;5.18;;;7.30;46.80;;;;;;5037755;28;20424;-64
2023/04/08 07:46:45;;;;;;;11.95;6.15;;;7.40;49.60;;;;;;5055712;28;20033;-66
2023/04/08 07:49:11;;;;;;;12.07;6.35;;;7.50;45.40;;;;;;5055690;28;20051;-67
2023/04/08 07:51:37;;;;;;;11.55;6.00;;;7.50;45.90;;;;;;5037490;28;20052;-64
2023/04/08 07:54:02;;;;;;;9.13;5.35;;;7.60;40.50;;;;;;5055316;28;20059;-65
2023/04/08 07:56:28;;;;;;;7.25;4.43;;;7.50;35.90;;;;;;5055252;28;20072;-65
2023/04/08 07:58:53;;;;;;;11.48;5.82;;;7.50;35.20;;;;;;5037636;28;20036;-66
2023/04/08 08:01:21;;;;;;;8.48;5.47;;;7.50;31.70;;;;;;5055103;28;20056;-64
2023/04/08 08:03:48;;;;;;;11.70;6.07;;;7.60;32.00;;;;;;5054961;28;20041;-66
2023/04/08 08:06:14;;;;;;;8.98;4.78;;;7.70;30.20;;;;;;5037135;28;20049;-65
2023/04/08 08:08:39;;;;;;;7.78;5.22;;;8.00;36.80;;;;;;5055289;28;20087;-67
2023/04/08 08:11:05;;;;;;;10.25;5.40;;;8.20;31.20;;;;;;5055187;28;20036;-67
2023/04/08 08:13:32;;;;;;;11.95;6.00;;;8.40;25.10;;;;;;5037121;28;20482;-67
2023/04/08 08:15:57;;;;;;;8.63;5.57;;;8.70;16.40;;;;;;5055198;28;20090;-66
2023/04/08 08:18:23;;;;;;;13.18;6.35;;;8.70;7.50;;;;;;5054291;28;20044;-68
2023/04/08 08:20:48;;;;;;;9.27;5.10;;;8.80;1.70;;;;;;5055063;28;20041;-66
2023/04/08 08:23:14;;;;;;;10.70;5.32;;;8.90;1.00;;;;;;5054662;28;20045;-66
2023/04/08 08:25:40;;;;;;;11.30;5.32;;;9.00;1.00;;;;;;5055001;28;20120;-66
2023/04/08 08:28:05;;;;;;;13.80;5.55;;;9.00;1.00;;;;;;5054943;28;20033;-66
2023/04/08 08:30:31;;;;;;;8.70;5.00;;;9.00;1.00;;;;;;5036751;28;20095;-67
2023/04/08 08:32:57;;;;;;;12.13;5.60;;;9.00;1.00;;;;;;5054880;28;20033;-67
2023/04/08 08:35:23;;;;;;;11.38;5.60;;;8.90;1.00;;;;;;5054811;28;20401;-67
2023/04/08 08:37:49;;;;;;;12.32;5.00;;;8.80;1.00;;;;;;5054765;28;20120;-67
2023/04/08 08:40:15;;;;;;;11.68;5.68;;;8.90;1.00;;;;;;5054676;28;20545;-66
2023/04/08 08:42:41;;;;;;;11.63;5.85;;;8.60;1.00;;;;;;5054587;28;20120;-67
2023/04/08 08:45:07;;;;;;;13.20;5.32;;;8.50;1.00;;;;;;5054640;28;20036;-67
2023/04/08 08:47:33;;;;;;;10.25;5.07;;;8.50;1.00;;;;;;5054486;28;20438;-66
2023/04/08 08:49:59;;;;;;;10.75;5.53;;;8.50;1.00;;;;;;5036612;28;20093;-66
2023/04/08 08:52:24;;;;;;;10.32;5.47;;;8.60;1.00;;;;;;5036040;28;20048;-66
2023/04/08 08:55:00;;;;;;;9.05;5.00;;;8.70;1.00;;;;;;5053841;28;20381;-66
2023/04/08 08:57:26;;;;;;;9.13;5.55;;;8.70;1.00;;;;;;5053962;28;20037;-67
2023/04/08 08:59:51;;;;;;;11.57;5.35;;;8.80;1.00;;;;;;5036101;28;20499;-67
2023/04/08 09:02:25;;;;;;;11.32;5.25;;;8.80;1.00;;;;;;5035491;28;20052;-67
2023/04/08 09:04:59;;;;;;;8.23;4.70;;;8.90;1.00;;;;;;5053686;28;20089;-67
2023/04/08 09:07:26;;;;;;;9.90;4.85;;;8.90;1.00;;;;;;5053912;28;20049;-67
2023/04/08 09:09:53;;;;;;;9.10;4.40;;;8.90;1.00;;;;;;5053952;28;20496;-67
2023/04/08 09:12:19;;;;;;;9.13;4.60;;;8.90;1.00;;;;;;5053755;28;20043;-67
2023/04/08 09:14:45;;;;;;;8.07;4.50;;;9.10;1.00;;;;;;5035593;28;20408;-67
2023/04/08 09:17:11;;;;;;;13.45;5.45;;;9.20;1.00;;;;;;5053741;28;20037;-67
2023/04/08 09:19:37;;;;;;;9.38;5.07;;;9.30;1.00;;;;;;5053729;28;20037;-67
2023/04/08 09:22:07;;;;;;;7.25;4.15;;;9.50;1.00;;;;;;5053581;28;20480;-67
2023/04/08 09:24:33;;;;;;;7.13;4.72;;;9.50;1.00;;;;;;5053614;28;20119;-67
2023/04/08 09:27:00;;;;;;;8.27;4.88;;;9.40;1.00;;;;;;5053481;28;20128;-67
2023/04/08 09:29:26;;;;;;;6.30;4.30;;;9.40;1.00;;;;;;5052626;28;20071;-67
2023/04/08 09:32:00;;;;;;;8.00;4.55;;;9.30;1.00;;;;;;5053456;28;20053;-67
2023/04/08 09:34:27;;;;;;;8.27;4.55;;;9.30;1.00;;;;;;5053472;28;20494;-67
2023/04/08 09:36:53;;;;;;;8.45;4.70;;;9.30;1.00;;;;;;5053181;28;20434;-67
2023/04/08 09:39:19;;;;;;;9.68;4.63;;;9.30;1.00;;;;;;5053058;28;20537;-67
2023/04/08 09:41:49;;;;;;;9.07;5.30;;;9.30;1.00;;;;;;5053232;28;20037;-67
2023/04/08 09:44:16;;;;;;;8.87;4.83;;;9.30;1.00;;;;;;5035178;28;20124;-67
2023/04/08 09:46:55;;;;;;;6.78;4.30;;;9.30;1.00;;;;;;5034911;28;20044;-67
2023/04/08 09:49:33;;;;;;;6.57;3.65;;;9.30;1.00;;;;;;5053124;28;20040;-67
2023/04/08 09:52:06;;;;;;;6.15;3.90;;;9.20;1.00;;;;;;5052820;28;20072;-67
2023/04/08 09:54:58;;;;;;;9.70;4.05;;;10.30;1.00;;;;;;5034883;28;20136;-67
2023/04/08 09:57:55;;;;;;;7.82;4.13;;;9.30;1.00;;;;;;5053010;28;20033;-67
2023/04/08 10:00:27;;;;;;;7.57;4.13;;;9.30;1.00;;;;;;5052914;28;20063;-67
2023/04/08 10:03:13;;;;;;;6.95;3.47;;;9.30;1.00;;;;;;5052851;28;20487;-67
2023/04/08 10:05:41;;;;;;;6.03;3.33;;;9.30;1.00;;;;;;5052452;28;20056;-67
2023/04/08 10:08:07;;;;;;;6.55;3.40;;;9.30;1.00;;;;;;5053326;28;20044;-66
2023/04/08 10:10:39;;;;;;;7.75;3.72;;;9.30;1.00;;;;;;5052542;28;20055;-67
2023/04/08 10:13:06;;;;;;;6.65;3.75;;;9.40;1.00;;;;;;5034378;28;20041;-67
2023/04/08 10:15:33;;;;;;;8.10;3.70;;;9.50;1.00;;;;;;5052309;28;20041;-67
2023/04/08 10:18:03;;;;;;;7.75;3.80;;;9.70;1.00;;;;;;5052234;28;20063;-69
2023/04/08 10:20:34;;;;;;;11.13;4.00;;;9.80;1.00;;;;;;5034695;28;20484;-67
2023/04/08 10:23:01;;;;;;;7.18;3.80;;;10.00;1.00;;;;;;5052086;28;20040;-67
2023/04/08 10:25:31;;;;;;;8.57;4.00;;;9.90;1.00;;;;;;5052407;28;20037;-67
2023/04/08 10:27:58;;;;;;;7.50;3.75;;;9.90;1.00;;;;;;5052648;28;20045;-67
2023/04/08 10:30:26;;;;;;;6.47;3.90;;;9.90;1.00;;;;;;5034810;28;20036;-67
2023/04/08 10:32:55;;;;;;;7.68;4.00;;;10.00;1.00;;;;;;5052561;28;20550;-68
2023/04/08 10:35:33;;;;;;;7.18;4.22;;;10.20;1.00;;;;;;5052174;28;20408;-68
2023/04/08 10:37:59;;;;;;;5.55;3.10;;;10.20;1.00;;;;;;5052459;28;20433;-70
2023/04/08 10:40:25;;;;;;;6.93;3.78;;;10.30;1.00;;;;;;5053492;28;20400;-68
2023/04/08 10:42:58;;;;;;;6.82;3.70;;;10.40;1.00;;;;;;5056558;28;20119;-67
2023/04/08 10:45:24;;;;;;;8.25;4.35;;;10.50;1.00;;;;;;5056487;28;20448;-67
2023/04/08 10:47:50;;;;;;;7.78;3.92;;;10.50;1.00;;;;;;5056239;28;20124;-67
2023/04/08 10:50:17;;;;;;;7.53;3.95;;;10.50;1.00;;;;;;5056142;28;20049;-67
2023/04/08 10:52:47;;;;;;;7.13;3.90;;;10.40;1.00;;;;;;5038500;28;20047;-67
2023/04/08 10:55:13;;;;;;;6.63;3.40;;;10.50;1.00;;;;;;5056339;28;20094;-67
2023/04/08 10:57:42;;;;;;;6.53;3.97;;;10.50;1.00;;;;;;5056389;28;20480;-67
2023/04/08 11:00:45;;;;;;;6.40;4.07;;;10.50;1.00;;;;;;5056006;28;20476;-69
2023/04/08 11:03:11;;;;;;;10.82;5.03;;;10.40;1.00;;;;;;5052178;28;20092;-68
2023/04/08 11:05:37;;;;;;;7.05;3.83;;;10.50;1.00;;;;;;5037901;28;20505;-68
2023/04/08 11:08:04;;;;;;;6.95;4.20;;;10.50;1.00;;;;;;5038025;28;20045;-67
2023/04/08 11:10:35;;;;;;;9.18;5.15;;;10.50;1.00;;;;;;5056194;28;20058;-68
2023/04/08 11:13:01;;;;;;;9.18;4.35;;;10.50;1.00;;;;;;5056139;28;20094;-67
2023/04/08 11:15:29;;;;;;;9.57;4.22;;;10.60;1.00;;;;;;5055843;28;20458;-70
2023/04/08 11:17:55;;;;;;;10.18;4.88;;;10.70;1.00;;;;;;5055812;28;20048;-68
2023/04/08 11:20:21;;;;;;;9.80;4.88;;;10.60;1.00;;;;;;5055742;28;20040;-68
2023/04/08 11:22:47;;;;;;;9.95;4.72;;;10.60;1.00;;;;;;5055566;28;20045;-66
2023/04/08 11:25:13;;;;;;;10.20;4.95;;;10.50;1.00;;;;;;5055633;28;20036;-67
2023/04/08 11:27:39;;;;;;;9.82;5.60;;;10.50;1.00;;;;;;5038006;28;20095;-68
2023/04/08 11:30:06;;;;;;;12.10;4.93;;;11.10;1.00;;;;;;5055741;28;20072;-69
2023/04/08 11:32:35;;;;;;;14.55;5.72;;;10.30;1.00;;;;;;5055660;28;20413;-68
2023/04/08 11:35:03;;;;;;;10.50;5.20;;;10.40;1.00;;;;;;5037857;28;20033;-68
2023/04/08 11:37:40;;;;;;;12.20;5.72;;;10.40;1.00;;;;;;5037743;28;20114;-68
2023/04/08 11:40:08;;;;;;;8.75;4.90;;;10.40;1.00;;;;;;5055612;28;20480;-66
2023/04/08 11:42:33;;;;;;;13.05;5.22;;;10.40;1.00;;;;;;5037221;28;20127;-66
2023/04/08 11:44:59;;;;;;;14.80;5.25;;;10.40;1.00;;;;;;5037315;28;20112;-66
2023/04/08 11:47:32;;;;;;;12.35;5.68;;;10.50;1.00;;;;;;5055154;28;20036;-66
2023/04/08 11:49:58;;;;;;;12.23;5.65;;;10.50;1.00;;;;;;5055321;28;20041;-66
2023/04/08 11:52:47;;;;;;;11.00;5.43;;;10.60;1.00;;;;;;5054349;28;20114;-67
2023/04/08 11:55:26;;;;;;;11.48;5.95;;;10.60;1.00;;;;;;5054992;28;20076;-66
2023/04/08 11:57:53;;;;;;;13.70;5.93;;;10.60;1.00;;;;;;5055263;28;20062;-66
2023/04/08 12:00:19;;;;;;;9.63;5.53;;;10.60;1.00;;;;;;5036962;28;20036;-66
2023/04/08 12:02:46;;;;;;;12.05;6.38;;;10.50;1.00;;;;;;5036988;28;20473;-66
2023/04/08 12:05:13;;;;;;;19.90;7.32;;;10.50;1.00;;;;;;5054745;28;20057;-66
2023/04/08 12:07:38;;;;;;;13.23;6.72;;;10.80;1.00;;;;;;5055087;28;20041;-66
2023/04/08 12:10:05;;;;;;;12.57;6.60;;;10.40;1.00;;;;;;5055036;28;20036;-69
2023/04/08 12:12:31;;;;;;;16.17;7.88;;;10.40;1.00;;;;;;5054668;28;20048;-66
2023/04/08 12:14:56;;;;;;;12.27;6.80;;;10.30;1.00;;;;;;5054933;28;20341;-66
2023/04/08 12:17:22;;;;;;;15.77;6.20;;;8.50;1.00;;;;;;5054772;28;20044;-66
2023/04/08 12:19:47;;;;;;;13.93;6.88;;;10.30;1.00;;;;;;5054907;28;20480;-66
2023/04/08 12:22:13;;;;;;;17.15;7.50;;;10.20;1.00;;;;;;5054439;28;20503;-66
2023/04/08 12:24:39;;;;;;;14.02;7.40;;;10.30;1.00;;;;;;5054714;28;20028;-66
2023/04/08 12:27:04;;;;;;;19.10;7.72;;;10.30;1.00;;;;;;5054733;28;20037;-66
2023/04/08 12:29:30;;;;;;;15.85;6.93;;;10.40;1.00;;;;;;5054745;28;20068;-66
2023/04/08 12:31:57;;;;;;;14.82;6.80;;;10.20;1.20;;;;;;5054393;28;20077;-66
2023/04/08 12:34:23;;;;;;;9.90;6.50;;;10.30;1.00;;;;;;5054540;28;20407;-66
2023/04/08 12:36:49;;;;;;;13.77;7.13;;;10.30;1.00;;;;;;5036345;28;20045;-66
2023/04/08 12:39:14;;;;;;;17.00;7.78;;;10.30;1.00;;;;;;5054454;28;20041;-66
2023/04/08 12:41:40;;;;;;;13.27;7.60;;;10.20;1.00;;;;;;5054006;28;20350;-66
2023/04/08 12:44:06;;;;;;;15.73;7.57;;;10.30;1.00;;;;;;5054059;28;20041;-66
2023/04/08 12:46:32;;;;;;;17.40;7.85;;;10.30;4.40;;;;;;5054037;28;20080;-66
2023/04/08 12:48:58;;;;;;;14.85;8.23;;;10.30;1.30;;;;;;5053981;28;20380;-66
2023/04/08 12:51:24;;;;;;;13.43;8.15;;;11.40;1.00;;;;;;5036333;28;20101;-66
2023/04/08 12:53:51;;;;;;;18.42;8.55;;;10.30;1.00;;;;;;5053918;28;20049;-66